sensor_id;sensor_type;location;lat;lon;timestamp;P1;durP1;ratioP1;P2;durP2;ratioP2
40599;SDS011;26309;50.924;4.754;2024-03-23T00:53:47;20.67;;;5.50;;
40599;SDS011;26309;50.924;4.754;2024-03-23T00:56:13;21.37;;;5.40;;
40599;SDS011;26309;50.924;4.754;2024-03-23T00:58:39;21.07;;;5.10;;
40599;SDS011;26309;50.924;4.754;2024-03-23T01:01:04;18.63;;;4.83;;
40599;SDS011;26309;50.924;4.754;2024-03-23T01:03:30;18.03;;;4.90;;
40599;SDS011;26309;50.924;4.754;2024-03-23T01:06:00;21.23;;;4.80;;
40599;SDS011;26309;50.924;4.754;2024-03-23T01:08:26;20.83;;;5.00;;
40599;SDS011;26309;50.924;4.754;2024-03-23T01:10:59;18.93;;;4.83;;
40599;SDS011;26309;50.924;4.754;2024-03-23T01:13:26;21.13;;;4.63;;
40599;SDS011;26309;50.924;4.754;2024-03-23T01:15:52;26.53;;;5.20;;
40599;SDS011;26309;50.924;4.754;2024-03-23T01:18:20;23.00;;;5.30;;
40599;SDS011;26309;50.924;4.754;2024-03-23T01:20:47;17.77;;;5.20;;
40599;SDS011;26309;50.924;4.754;2024-03-23T01:23:13;19.97;;;5.17;;
40599;SDS011;26309;50.924;4.754;2024-03-23T01:25:39;20.90;;;5.17;;
40599;SDS011;26309;50.924;4.754;2024-03-23T01:28:05;25.20;;;5.50;;
40599;SDS011;26309;50.924;4.754;2024-03-23T01:30:32;23.37;;;5.67;;
40599;SDS011;26309;50.924;4.754;2024-03-23T01:32:58;18.90;;;5.10;;
40599;SDS011;26309;50.924;4.754;2024-03-23T01:35:24;21.80;;;5.77;;
40599;SDS011;26309;50.924;4.754;2024-03-23T01:37:50;24.83;;;5.50;;
40599;SDS011;26309;50.924;4.754;2024-03-23T01:40:16;19.90;;;5.40;;
40599;SDS011;26309;50.924;4.754;2024-03-23T01:42:42;19.30;;;5.57;;
40599;SDS011;26309;50.924;4.754;2024-03-23T01:45:20;19.10;;;5.70;;
40599;SDS011;26309;50.924;4.754;2024-03-23T01:47:46;23.77;;;5.70;;
40599;SDS011;26309;50.924;4.754;2024-03-23T01:50:12;22.37;;;5.80;;
40599;SDS011;26309;50.924;4.754;2024-03-23T01:52:39;16.90;;;5.03;;
40599;SDS011;26309;50.924;4.754;2024-03-23T01:55:05;13.60;;;5.80;;
40599;SDS011;26309;50.924;4.754;2024-03-23T01:57:31;15.13;;;4.67;;
40599;SDS011;26309;50.924;4.754;2024-03-23T01:59:56;22.33;;;5.13;;
40599;SDS011;26309;50.924;4.754;2024-03-23T02:02:22;19.90;;;5.73;;
40599;SDS011;26309;50.924;4.754;2024-03-23T02:04:48;24.70;;;6.13;;
40599;SDS011;26309;50.924;4.754;2024-03-23T02:07:14;18.47;;;6.27;;
40599;SDS011;26309;50.924;4.754;2024-03-23T02:09:40;22.47;;;6.60;;
40599;SDS011;26309;50.924;4.754;2024-03-23T02:12:06;21.20;;;6.50;;
40599;SDS011;26309;50.924;4.754;2024-03-23T02:14:32;24.03;;;7.67;;
40599;SDS011;26309;50.924;4.754;2024-03-23T02:16:58;25.37;;;7.20;;
40599;SDS011;26309;50.924;4.754;2024-03-23T02:19:24;28.73;;;7.93;;
40599;SDS011;26309;50.924;4.754;2024-03-23T02:21:49;26.27;;;8.40;;
40599;SDS011;26309;50.924;4.754;2024-03-23T02:24:17;22.97;;;7.70;;
40599;SDS011;26309;50.924;4.754;2024-03-23T02:26:43;22.97;;;7.43;;
40599;SDS011;26309;50.924;4.754;2024-03-23T02:29:09;26.87;;;7.70;;
40599;SDS011;26309;50.924;4.754;2024-03-23T02:31:35;21.57;;;7.73;;
40599;SDS011;26309;50.924;4.754;2024-03-23T02:34:01;30.13;;;8.53;;
40599;SDS011;26309;50.924;4.754;2024-03-23T02:36:27;24.73;;;7.90;;
40599;SDS011;26309;50.924;4.754;2024-03-23T02:38:55;20.73;;;8.33;;
40599;SDS011;26309;50.924;4.754;2024-03-23T02:41:21;25.53;;;8.53;;
40599;SDS011;26309;50.924;4.754;2024-03-23T02:43:49;25.00;;;8.80;;
40599;SDS011;26309;50.924;4.754;2024-03-23T02:46:15;29.17;;;8.57;;
40599;SDS011;26309;50.924;4.754;2024-03-23T02:48:41;26.37;;;8.43;;
40599;SDS011;26309;50.924;4.754;2024-03-23T02:51:07;30.27;;;9.40;;
40599;SDS011;26309;50.924;4.754;2024-03-23T02:53:33;30.50;;;9.63;;
40599;SDS011;26309;50.924;4.754;2024-03-23T02:55:59;27.60;;;10.67;;
40599;SDS011;26309;50.924;4.754;2024-03-23T02:58:25;31.70;;;10.13;;
40599;SDS011;26309;50.924;4.754;2024-03-23T03:00:50;32.53;;;10.47;;
40599;SDS011;26309;50.924;4.754;2024-03-23T03:03:16;33.77;;;11.50;;
40599;SDS011;26309;50.924;4.754;2024-03-23T03:05:42;30.13;;;11.67;;
40599;SDS011;26309;50.924;4.754;2024-03-23T03:08:09;37.30;;;12.30;;
40599;SDS011;26309;50.924;4.754;2024-03-23T03:10:35;33.50;;;12.50;;
40599;SDS011;26309;50.924;4.754;2024-03-23T03:13:01;28.67;;;13.17;;
40599;SDS011;26309;50.924;4.754;2024-03-23T03:15:27;26.43;;;11.83;;
40599;SDS011;26309;50.924;4.754;2024-03-23T03:17:53;30.03;;;12.23;;
40599;SDS011;26309;50.924;4.754;2024-03-23T03:20:19;27.73;;;11.47;;
40599;SDS011;26309;50.924;4.754;2024-03-23T03:22:47;32.70;;;12.60;;
40599;SDS011;26309;50.924;4.754;2024-03-23T03:25:13;37.67;;;13.13;;
40599;SDS011;26309;50.924;4.754;2024-03-23T03:27:38;29.67;;;12.43;;
40599;SDS011;26309;50.924;4.754;2024-03-23T03:30:05;34.23;;;13.70;;
40599;SDS011;26309;50.924;4.754;2024-03-23T03:32:33;33.17;;;13.53;;
40599;SDS011;26309;50.924;4.754;2024-03-23T03:34:59;37.87;;;13.63;;
40599;SDS011;26309;50.924;4.754;2024-03-23T03:37:25;29.07;;;12.97;;
40599;SDS011;26309;50.924;4.754;2024-03-23T03:39:51;30.57;;;13.37;;
40599;SDS011;26309;50.924;4.754;2024-03-23T03:42:17;32.70;;;13.17;;
40599;SDS011;26309;50.924;4.754;2024-03-23T03:44:42;32.50;;;12.70;;
40599;SDS011;26309;50.924;4.754;2024-03-23T03:47:08;40.47;;;13.63;;
40599;SDS011;26309;50.924;4.754;2024-03-23T03:49:34;32.47;;;13.37;;
40599;SDS011;26309;50.924;4.754;2024-03-23T03:52:00;43.30;;;14.33;;
40599;SDS011;26309;50.924;4.754;2024-03-23T03:54:27;28.50;;;12.73;;
40599;SDS011;26309;50.924;4.754;2024-03-23T03:56:53;34.63;;;14.07;;
40599;SDS011;26309;50.924;4.754;2024-03-23T03:59:18;31.00;;;12.63;;
40599;SDS011;26309;50.924;4.754;2024-03-23T04:01:45;34.53;;;13.03;;
40599;SDS011;26309;50.924;4.754;2024-03-23T04:04:11;27.83;;;12.60;;
40599;SDS011;26309;50.924;4.754;2024-03-23T04:06:37;32.37;;;12.60;;
40599;SDS011;26309;50.924;4.754;2024-03-23T04:09:03;27.83;;;12.77;;
40599;SDS011;26309;50.924;4.754;2024-03-23T04:11:28;34.80;;;11.83;;
40599;SDS011;26309;50.924;4.754;2024-03-23T04:13:54;38.33;;;12.77;;
40599;SDS011;26309;50.924;4.754;2024-03-23T04:16:33;40.40;;;13.30;;
40599;SDS011;26309;50.924;4.754;2024-03-23T04:19:00;29.87;;;11.67;;
40599;SDS011;26309;50.924;4.754;2024-03-23T04:21:26;30.00;;;12.23;;
40599;SDS011;26309;50.924;4.754;2024-03-23T04:23:52;30.60;;;12.37;;
40599;SDS011;26309;50.924;4.754;2024-03-23T04:26:18;38.00;;;13.30;;
40599;SDS011;26309;50.924;4.754;2024-03-23T04:28:44;39.10;;;13.17;;
40599;SDS011;26309;50.924;4.754;2024-03-23T04:31:09;41.30;;;13.20;;
40599;SDS011;26309;50.924;4.754;2024-03-23T04:33:35;31.97;;;12.77;;
40599;SDS011;26309;50.924;4.754;2024-03-23T04:36:01;35.43;;;13.70;;
40599;SDS011;26309;50.924;4.754;2024-03-23T04:38:27;37.13;;;13.70;;
40599;SDS011;26309;50.924;4.754;2024-03-23T04:40:57;39.77;;;14.07;;
40599;SDS011;26309;50.924;4.754;2024-03-23T04:43:23;32.37;;;12.70;;
40599;SDS011;26309;50.924;4.754;2024-03-23T04:45:50;41.77;;;14.57;;
40599;SDS011;26309;50.924;4.754;2024-03-23T04:48:16;38.57;;;14.00;;
40599;SDS011;26309;50.924;4.754;2024-03-23T04:50:43;31.80;;;13.67;;
40599;SDS011;26309;50.924;4.754;2024-03-23T04:53:09;34.00;;;13.77;;
40599;SDS011;26309;50.924;4.754;2024-03-23T04:55:34;38.63;;;13.97;;
40599;SDS011;26309;50.924;4.754;2024-03-23T04:58:00;43.87;;;14.87;;
40599;SDS011;26309;50.924;4.754;2024-03-23T05:00:26;36.87;;;14.40;;
40599;SDS011;26309;50.924;4.754;2024-03-23T05:02:52;35.20;;;14.47;;
40599;SDS011;26309;50.924;4.754;2024-03-23T05:05:18;35.40;;;13.70;;
40599;SDS011;26309;50.924;4.754;2024-03-23T05:07:44;38.30;;;15.67;;
40599;SDS011;26309;50.924;4.754;2024-03-23T05:10:10;42.23;;;14.67;;
40599;SDS011;26309;50.924;4.754;2024-03-23T05:12:39;45.90;;;15.17;;
40599;SDS011;26309;50.924;4.754;2024-03-23T05:15:05;39.17;;;14.03;;
40599;SDS011;26309;50.924;4.754;2024-03-23T05:17:33;35.80;;;14.23;;
40599;SDS011;26309;50.924;4.754;2024-03-23T05:19:59;38.50;;;14.53;;
40599;SDS011;26309;50.924;4.754;2024-03-23T05:22:25;35.70;;;13.27;;
40599;SDS011;26309;50.924;4.754;2024-03-23T05:24:52;40.33;;;13.33;;
40599;SDS011;26309;50.924;4.754;2024-03-23T05:27:18;27.17;;;11.63;;
40599;SDS011;26309;50.924;4.754;2024-03-23T05:29:44;44.03;;;13.30;;
40599;SDS011;26309;50.924;4.754;2024-03-23T05:32:10;36.83;;;12.60;;
40599;SDS011;26309;50.924;4.754;2024-03-23T05:34:35;33.70;;;12.73;;
40599;SDS011;26309;50.924;4.754;2024-03-23T05:37:01;30.10;;;12.00;;
40599;SDS011;26309;50.924;4.754;2024-03-23T05:39:27;26.10;;;10.47;;
40599;SDS011;26309;50.924;4.754;2024-03-23T05:41:53;26.80;;;11.10;;
40599;SDS011;26309;50.924;4.754;2024-03-23T05:44:19;24.90;;;10.67;;
40599;SDS011;26309;50.924;4.754;2024-03-23T05:46:45;33.63;;;10.60;;
40599;SDS011;26309;50.924;4.754;2024-03-23T05:49:15;23.77;;;10.10;;
40599;SDS011;26309;50.924;4.754;2024-03-23T05:51:42;34.57;;;10.47;;
40599;SDS011;26309;50.924;4.754;2024-03-23T05:54:08;31.43;;;10.70;;
40599;SDS011;26309;50.924;4.754;2024-03-23T05:56:34;20.67;;;8.97;;
40599;SDS011;26309;50.924;4.754;2024-03-23T05:59:00;20.37;;;9.63;;
40599;SDS011;26309;50.924;4.754;2024-03-23T06:01:28;26.50;;;10.43;;
40599;SDS011;26309;50.924;4.754;2024-03-23T06:03:54;30.63;;;10.60;;
40599;SDS011;26309;50.924;4.754;2024-03-23T06:06:20;28.10;;;9.17;;
40599;SDS011;26309;50.924;4.754;2024-03-23T06:08:45;24.40;;;9.40;;
40599;SDS011;26309;50.924;4.754;2024-03-23T06:11:11;23.00;;;8.73;;
40599;SDS011;26309;50.924;4.754;2024-03-23T06:13:37;25.13;;;9.43;;
40599;SDS011;26309;50.924;4.754;2024-03-23T06:16:03;23.30;;;9.73;;
40599;SDS011;26309;50.924;4.754;2024-03-23T06:18:29;30.50;;;9.50;;
40599;SDS011;26309;50.924;4.754;2024-03-23T06:20:55;21.77;;;9.27;;
40599;SDS011;26309;50.924;4.754;2024-03-23T06:23:20;18.33;;;8.20;;
40599;SDS011;26309;50.924;4.754;2024-03-23T06:25:46;19.33;;;9.43;;
40599;SDS011;26309;50.924;4.754;2024-03-23T06:28:12;32.90;;;9.43;;
40599;SDS011;26309;50.924;4.754;2024-03-23T06:30:39;25.00;;;9.80;;
40599;SDS011;26309;50.924;4.754;2024-03-23T06:33:04;25.40;;;8.47;;
40599;SDS011;26309;50.924;4.754;2024-03-23T06:35:30;22.97;;;9.20;;
40599;SDS011;26309;50.924;4.754;2024-03-23T06:37:56;21.07;;;8.00;;
40599;SDS011;26309;50.924;4.754;2024-03-23T06:40:23;27.97;;;8.50;;
40599;SDS011;26309;50.924;4.754;2024-03-23T06:42:49;17.27;;;8.27;;
40599;SDS011;26309;50.924;4.754;2024-03-23T06:45:16;16.93;;;6.90;;
40599;SDS011;26309;50.924;4.754;2024-03-23T06:47:48;21.13;;;7.63;;
40599;SDS011;26309;50.924;4.754;2024-03-23T06:50:15;17.00;;;7.13;;
40599;SDS011;26309;50.924;4.754;2024-03-23T06:52:41;22.97;;;7.47;;
40599;SDS011;26309;50.924;4.754;2024-03-23T06:55:07;24.23;;;6.87;;
40599;SDS011;26309;50.924;4.754;2024-03-23T06:57:33;25.73;;;7.13;;
40599;SDS011;26309;50.924;4.754;2024-03-23T07:00:00;25.20;;;7.10;;
40599;SDS011;26309;50.924;4.754;2024-03-23T07:02:26;19.17;;;6.23;;
40599;SDS011;26309;50.924;4.754;2024-03-23T07:04:52;25.53;;;5.57;;
40599;SDS011;26309;50.924;4.754;2024-03-23T07:07:17;19.07;;;5.53;;
40599;SDS011;26309;50.924;4.754;2024-03-23T07:09:43;14.10;;;6.13;;
40599;SDS011;26309;50.924;4.754;2024-03-23T07:12:09;14.90;;;5.07;;
40599;SDS011;26309;50.924;4.754;2024-03-23T07:14:38;15.73;;;5.10;;
40599;SDS011;26309;50.924;4.754;2024-03-23T07:17:03;22.80;;;5.80;;
40599;SDS011;26309;50.924;4.754;2024-03-23T07:19:29;10.47;;;4.70;;
40599;SDS011;26309;50.924;4.754;2024-03-23T07:21:55;15.70;;;4.40;;
40599;SDS011;26309;50.924;4.754;2024-03-23T07:24:21;17.30;;;4.60;;
40599;SDS011;26309;50.924;4.754;2024-03-23T07:26:47;21.30;;;5.07;;
40599;SDS011;26309;50.924;4.754;2024-03-23T07:29:13;19.37;;;3.80;;
40599;SDS011;26309;50.924;4.754;2024-03-23T07:31:38;15.13;;;3.77;;
40599;SDS011;26309;50.924;4.754;2024-03-23T07:34:04;15.57;;;4.33;;
40599;SDS011;26309;50.924;4.754;2024-03-23T07:36:31;16.90;;;3.90;;
40599;SDS011;26309;50.924;4.754;2024-03-23T07:38:56;18.10;;;4.30;;
40599;SDS011;26309;50.924;4.754;2024-03-23T07:41:22;20.47;;;3.73;;
40599;SDS011;26309;50.924;4.754;2024-03-23T07:43:48;21.27;;;4.20;;
40599;SDS011;26309;50.924;4.754;2024-03-23T07:46:15;13.10;;;4.20;;
40599;SDS011;26309;50.924;4.754;2024-03-23T07:48:41;11.97;;;3.27;;
40599;SDS011;26309;50.924;4.754;2024-03-23T07:51:12;14.70;;;3.87;;
40599;SDS011;26309;50.924;4.754;2024-03-23T07:53:42;10.27;;;3.40;;
40599;SDS011;26309;50.924;4.754;2024-03-23T07:56:11;10.97;;;3.10;;
40599;SDS011;26309;50.924;4.754;2024-03-23T07:58:37;9.00;;;2.73;;
40599;SDS011;26309;50.924;4.754;2024-03-23T08:01:04;8.33;;;2.70;;
40599;SDS011;26309;50.924;4.754;2024-03-23T08:03:37;4.53;;;2.63;;
40599;SDS011;26309;50.924;4.754;2024-03-23T08:08:36;11.27;;;2.80;;
40599;SDS011;26309;50.924;4.754;2024-03-23T08:11:03;9.40;;;2.97;;
40599;SDS011;26309;50.924;4.754;2024-03-23T08:13:29;13.20;;;3.30;;
40599;SDS011;26309;50.924;4.754;2024-03-23T08:15:58;15.33;;;3.47;;
40599;SDS011;26309;50.924;4.754;2024-03-23T08:18:25;12.37;;;3.57;;
40599;SDS011;26309;50.924;4.754;2024-03-23T08:21:24;11.97;;;3.63;;
40599;SDS011;26309;50.924;4.754;2024-03-23T08:23:44;12.20;;;3.50;;
40599;SDS011;26309;50.924;4.754;2024-03-23T08:26:10;13.43;;;4.17;;
40599;SDS011;26309;50.924;4.754;2024-03-23T08:28:37;12.10;;;4.00;;
40599;SDS011;26309;50.924;4.754;2024-03-23T08:31:05;10.70;;;3.90;;
40599;SDS011;26309;50.924;4.754;2024-03-23T08:33:32;12.47;;;3.70;;
40599;SDS011;26309;50.924;4.754;2024-03-23T08:35:59;18.07;;;3.87;;
40599;SDS011;26309;50.924;4.754;2024-03-23T08:38:26;18.30;;;3.83;;
40599;SDS011;26309;50.924;4.754;2024-03-23T08:40:56;14.27;;;3.53;;
40599;SDS011;26309;50.924;4.754;2024-03-23T08:43:29;15.97;;;3.50;;
40599;SDS011;26309;50.924;4.754;2024-03-23T08:46:05;13.77;;;3.67;;
40599;SDS011;26309;50.924;4.754;2024-03-23T08:48:36;16.37;;;3.87;;
40599;SDS011;26309;50.924;4.754;2024-03-23T08:51:03;14.63;;;3.70;;
40599;SDS011;26309;50.924;4.754;2024-03-23T08:53:30;13.97;;;3.33;;
40599;SDS011;26309;50.924;4.754;2024-03-23T08:55:57;15.27;;;3.47;;
40599;SDS011;26309;50.924;4.754;2024-03-23T08:58:23;9.30;;;3.10;;
40599;SDS011;26309;50.924;4.754;2024-03-23T09:00:56;17.77;;;3.27;;
40599;SDS011;26309;50.924;4.754;2024-03-23T09:03:28;18.03;;;3.50;;
40599;SDS011;26309;50.924;4.754;2024-03-23T09:05:54;10.15;;;3.42;;
40599;SDS011;26309;50.924;4.754;2024-03-23T09:08:20;14.53;;;3.20;;
40599;SDS011;26309;50.924;4.754;2024-03-23T09:10:46;13.47;;;3.30;;
40599;SDS011;26309;50.924;4.754;2024-03-23T09:13:13;13.93;;;3.47;;
40599;SDS011;26309;50.924;4.754;2024-03-23T09:15:49;11.37;;;3.40;;
40599;SDS011;26309;50.924;4.754;2024-03-23T09:18:18;10.00;;;3.20;;
40599;SDS011;26309;50.924;4.754;2024-03-23T09:20:44;10.57;;;3.40;;
40599;SDS011;26309;50.924;4.754;2024-03-23T09:23:10;12.03;;;3.33;;
40599;SDS011;26309;50.924;4.754;2024-03-23T09:25:36;11.07;;;3.17;;
40599;SDS011;26309;50.924;4.754;2024-03-23T09:28:03;15.57;;;3.30;;
40599;SDS011;26309;50.924;4.754;2024-03-23T09:30:29;10.17;;;2.80;;
40599;SDS011;26309;50.924;4.754;2024-03-23T09:32:54;13.00;;;3.25;;
40599;SDS011;26309;50.924;4.754;2024-03-23T09:35:20;14.52;;;2.97;;
40599;SDS011;26309;50.924;4.754;2024-03-23T09:37:46;12.82;;;2.88;;
40599;SDS011;26309;50.924;4.754;2024-03-23T09:40:12;9.13;;;3.10;;
40599;SDS011;26309;50.924;4.754;2024-03-23T09:42:38;7.43;;;2.80;;
40599;SDS011;26309;50.924;4.754;2024-03-23T09:45:10;9.05;;;2.70;;
40599;SDS011;26309;50.924;4.754;2024-03-23T09:47:42;12.30;;;2.92;;
40599;SDS011;26309;50.924;4.754;2024-03-23T09:50:09;9.02;;;2.70;;
40599;SDS011;26309;50.924;4.754;2024-03-23T09:52:35;16.67;;;2.70;;
40599;SDS011;26309;50.924;4.754;2024-03-23T09:55:01;11.90;;;3.38;;
40599;SDS011;26309;50.924;4.754;2024-03-23T09:57:26;11.25;;;2.63;;
40599;SDS011;26309;50.924;4.754;2024-03-23T09:59:52;13.60;;;2.97;;
40599;SDS011;26309;50.924;4.754;2024-03-23T10:02:20;10.43;;;2.63;;
40599;SDS011;26309;50.924;4.754;2024-03-23T10:04:46;9.80;;;2.83;;
40599;SDS011;26309;50.924;4.754;2024-03-23T10:07:13;8.38;;;2.70;;
40599;SDS011;26309;50.924;4.754;2024-03-23T10:12:13;10.27;;;2.90;;
40599;SDS011;26309;50.924;4.754;2024-03-23T10:14:41;9.18;;;2.47;;
40599;SDS011;26309;50.924;4.754;2024-03-23T10:17:18;10.57;;;2.80;;
40599;SDS011;26309;50.924;4.754;2024-03-23T10:19:53;8.18;;;2.95;;
40599;SDS011;26309;50.924;4.754;2024-03-23T10:22:22;9.43;;;3.03;;
40599;SDS011;26309;50.924;4.754;2024-03-23T10:24:49;8.63;;;3.08;;
40599;SDS011;26309;50.924;4.754;2024-03-23T10:27:15;5.07;;;2.50;;
40599;SDS011;26309;50.924;4.754;2024-03-23T10:29:47;9.35;;;2.70;;
40599;SDS011;26309;50.924;4.754;2024-03-23T10:32:14;7.53;;;2.92;;
40599;SDS011;26309;50.924;4.754;2024-03-23T10:34:41;7.72;;;2.63;;
40599;SDS011;26309;50.924;4.754;2024-03-23T10:37:07;7.78;;;3.17;;
40599;SDS011;26309;50.924;4.754;2024-03-23T10:42:03;7.85;;;2.60;;
40599;SDS011;26309;50.924;4.754;2024-03-23T10:44:34;5.53;;;2.72;;
40599;SDS011;26309;50.924;4.754;2024-03-23T10:47:03;6.65;;;2.80;;
40599;SDS011;26309;50.924;4.754;2024-03-23T10:49:30;5.72;;;2.90;;
40599;SDS011;26309;50.924;4.754;2024-03-23T10:51:58;8.35;;;2.95;;
40599;SDS011;26309;50.924;4.754;2024-03-23T10:54:25;7.63;;;3.35;;
40599;SDS011;26309;50.924;4.754;2024-03-23T10:59:34;11.02;;;2.88;;
40599;SDS011;26309;50.924;4.754;2024-03-23T11:02:03;9.63;;;2.80;;
40599;SDS011;26309;50.924;4.754;2024-03-23T11:04:36;8.20;;;2.67;;
40599;SDS011;26309;50.924;4.754;2024-03-23T11:09:51;9.38;;;2.80;;
40599;SDS011;26309;50.924;4.754;2024-03-23T11:15:11;5.95;;;2.50;;
40599;SDS011;26309;50.924;4.754;2024-03-23T11:17:37;8.82;;;2.45;;
40599;SDS011;26309;50.924;4.754;2024-03-23T11:20:04;8.13;;;2.97;;
40599;SDS011;26309;50.924;4.754;2024-03-23T11:22:37;2.92;;;2.03;;
40599;SDS011;26309;50.924;4.754;2024-03-23T11:27:48;7.50;;;2.47;;
40599;SDS011;26309;50.924;4.754;2024-03-23T11:30:27;5.30;;;2.97;;
40599;SDS011;26309;50.924;4.754;2024-03-23T11:32:54;5.57;;;2.60;;
40599;SDS011;26309;50.924;4.754;2024-03-23T11:38:06;8.33;;;3.13;;
40599;SDS011;26309;50.924;4.754;2024-03-23T11:40:35;10.80;;;3.30;;
40599;SDS011;26309;50.924;4.754;2024-03-23T11:43:03;7.07;;;3.07;;
40599;SDS011;26309;50.924;4.754;2024-03-23T11:45:37;8.90;;;3.07;;
40599;SDS011;26309;50.924;4.754;2024-03-23T11:48:05;9.67;;;2.50;;
40599;SDS011;26309;50.924;4.754;2024-03-23T11:50:37;9.17;;;2.57;;
40599;SDS011;26309;50.924;4.754;2024-03-23T11:53:15;4.22;;;2.03;;
40599;SDS011;26309;50.924;4.754;2024-03-23T11:58:17;6.63;;;1.73;;
40599;SDS011;26309;50.924;4.754;2024-03-23T12:00:57;7.30;;;1.60;;
40599;SDS011;26309;50.924;4.754;2024-03-23T12:03:25;6.25;;;1.90;;
40599;SDS011;26309;50.924;4.754;2024-03-23T12:05:54;8.43;;;1.83;;
40599;SDS011;26309;50.924;4.754;2024-03-23T12:08:28;4.50;;;1.73;;
40599;SDS011;26309;50.924;4.754;2024-03-23T12:13:37;8.18;;;2.33;;
40599;SDS011;26309;50.924;4.754;2024-03-23T12:16:10;7.40;;;2.03;;
40599;SDS011;26309;50.924;4.754;2024-03-23T12:18:36;5.22;;;1.92;;
40599;SDS011;26309;50.924;4.754;2024-03-23T12:21:03;5.70;;;2.15;;
40599;SDS011;26309;50.924;4.754;2024-03-23T12:23:29;9.60;;;1.87;;
40599;SDS011;26309;50.924;4.754;2024-03-23T12:25:55;7.13;;;2.20;;
40599;SDS011;26309;50.924;4.754;2024-03-23T12:28:21;4.00;;;1.73;;
40599;SDS011;26309;50.924;4.754;2024-03-23T12:30:50;5.88;;;1.65;;
40599;SDS011;26309;50.924;4.754;2024-03-23T12:33:20;5.22;;;1.75;;
40599;SDS011;26309;50.924;4.754;2024-03-23T12:35:50;7.32;;;1.80;;
40599;SDS011;26309;50.924;4.754;2024-03-23T12:38:16;7.50;;;2.03;;
40599;SDS011;26309;50.924;4.754;2024-03-23T12:40:46;8.10;;;2.10;;
40599;SDS011;26309;50.924;4.754;2024-03-23T12:43:14;7.00;;;2.03;;
40599;SDS011;26309;50.924;4.754;2024-03-23T12:45:40;4.75;;;2.00;;
40599;SDS011;26309;50.924;4.754;2024-03-23T12:48:07;5.55;;;1.85;;
40599;SDS011;26309;50.924;4.754;2024-03-23T12:50:35;5.90;;;1.15;;
40599;SDS011;26309;50.924;4.754;2024-03-23T12:53:01;5.68;;;1.60;;
40599;SDS011;26309;50.924;4.754;2024-03-23T12:55:27;3.40;;;1.40;;
40599;SDS011;26309;50.924;4.754;2024-03-23T12:57:53;1.63;;;1.10;;
40599;SDS011;26309;50.924;4.754;2024-03-23T13:00:19;3.00;;;1.25;;
40599;SDS011;26309;50.924;4.754;2024-03-23T13:02:45;2.40;;;1.30;;
40599;SDS011;26309;50.924;4.754;2024-03-23T13:05:11;4.25;;;1.40;;
40599;SDS011;26309;50.924;4.754;2024-03-23T13:07:37;3.03;;;1.40;;
40599;SDS011;26309;50.924;4.754;2024-03-23T13:10:04;3.50;;;1.73;;
40599;SDS011;26309;50.924;4.754;2024-03-23T13:12:30;3.70;;;1.50;;
40599;SDS011;26309;50.924;4.754;2024-03-23T13:14:57;4.38;;;1.65;;
40599;SDS011;26309;50.924;4.754;2024-03-23T13:17:24;6.55;;;1.70;;
40599;SDS011;26309;50.924;4.754;2024-03-23T13:19:52;3.95;;;1.35;;
40599;SDS011;26309;50.924;4.754;2024-03-23T13:22:20;7.50;;;2.10;;
40599;SDS011;26309;50.924;4.754;2024-03-23T13:24:46;7.78;;;1.90;;
40599;SDS011;26309;50.924;4.754;2024-03-23T13:27:12;4.10;;;1.58;;
40599;SDS011;26309;50.924;4.754;2024-03-23T13:29:37;4.03;;;1.60;;
40599;SDS011;26309;50.924;4.754;2024-03-23T13:32:04;8.77;;;1.80;;
40599;SDS011;26309;50.924;4.754;2024-03-23T13:34:30;6.30;;;1.70;;
40599;SDS011;26309;50.924;4.754;2024-03-23T13:36:56;5.32;;;1.70;;
40599;SDS011;26309;50.924;4.754;2024-03-23T13:39:24;6.28;;;1.80;;
40599;SDS011;26309;50.924;4.754;2024-03-23T13:41:52;7.80;;;2.00;;
40599;SDS011;26309;50.924;4.754;2024-03-23T13:44:19;6.07;;;1.90;;
40599;SDS011;26309;50.924;4.754;2024-03-23T13:46:45;7.50;;;2.00;;
40599;SDS011;26309;50.924;4.754;2024-03-23T13:49:28;5.93;;;2.17;;
40599;SDS011;26309;50.924;4.754;2024-03-23T13:51:57;8.63;;;1.93;;
40599;SDS011;26309;50.924;4.754;2024-03-23T13:54:23;7.83;;;2.00;;
40599;SDS011;26309;50.924;4.754;2024-03-23T13:56:50;8.20;;;2.33;;
40599;SDS011;26309;50.924;4.754;2024-03-23T13:59:16;7.10;;;2.10;;
40599;SDS011;26309;50.924;4.754;2024-03-23T14:01:43;10.55;;;2.13;;
40599;SDS011;26309;50.924;4.754;2024-03-23T14:04:10;9.60;;;2.15;;
40599;SDS011;26309;50.924;4.754;2024-03-23T14:06:37;6.95;;;2.20;;
40599;SDS011;26309;50.924;4.754;2024-03-23T14:09:03;5.03;;;2.00;;
40599;SDS011;26309;50.924;4.754;2024-03-23T14:11:29;8.27;;;2.42;;
40599;SDS011;26309;50.924;4.754;2024-03-23T14:13:55;6.90;;;2.20;;
40599;SDS011;26309;50.924;4.754;2024-03-23T14:16:21;6.63;;;1.92;;
40599;SDS011;26309;50.924;4.754;2024-03-23T14:18:47;10.80;;;2.40;;
40599;SDS011;26309;50.924;4.754;2024-03-23T14:21:13;10.77;;;2.70;;
40599;SDS011;26309;50.924;4.754;2024-03-23T14:23:39;7.47;;;2.03;;
40599;SDS011;26309;50.924;4.754;2024-03-23T14:26:06;6.00;;;2.20;;
40599;SDS011;26309;50.924;4.754;2024-03-23T14:28:33;6.13;;;1.97;;
40599;SDS011;26309;50.924;4.754;2024-03-23T14:31:00;6.23;;;2.00;;
40599;SDS011;26309;50.924;4.754;2024-03-23T14:33:26;5.90;;;1.77;;
40599;SDS011;26309;50.924;4.754;2024-03-23T14:35:52;6.20;;;2.10;;
40599;SDS011;26309;50.924;4.754;2024-03-23T14:38:20;5.53;;;1.67;;
40599;SDS011;26309;50.924;4.754;2024-03-23T14:40:46;6.30;;;2.27;;
40599;SDS011;26309;50.924;4.754;2024-03-23T14:43:12;7.33;;;2.20;;
40599;SDS011;26309;50.924;4.754;2024-03-23T14:45:49;7.90;;;1.98;;
40599;SDS011;26309;50.924;4.754;2024-03-23T14:48:39;5.03;;;1.77;;
40599;SDS011;26309;50.924;4.754;2024-03-23T14:51:06;3.53;;;1.60;;
40599;SDS011;26309;50.924;4.754;2024-03-23T14:53:36;4.30;;;1.70;;
40599;SDS011;26309;50.924;4.754;2024-03-23T14:56:05;7.45;;;1.63;;
40599;SDS011;26309;50.924;4.754;2024-03-23T14:58:32;4.75;;;1.70;;
40599;SDS011;26309;50.924;4.754;2024-03-23T15:01:09;6.68;;;1.50;;
40599;SDS011;26309;50.924;4.754;2024-03-23T15:03:35;5.03;;;1.92;;
40599;SDS011;26309;50.924;4.754;2024-03-23T15:06:01;6.85;;;2.10;;
40599;SDS011;26309;50.924;4.754;2024-03-23T15:08:27;6.97;;;2.08;;
40599;SDS011;26309;50.924;4.754;2024-03-23T15:10:54;6.75;;;1.75;;
40599;SDS011;26309;50.924;4.754;2024-03-23T15:13:24;4.47;;;1.92;;
40599;SDS011;26309;50.924;4.754;2024-03-23T15:15:50;4.65;;;1.80;;
40599;SDS011;26309;50.924;4.754;2024-03-23T15:18:17;5.57;;;1.77;;
40599;SDS011;26309;50.924;4.754;2024-03-23T15:20:54;6.25;;;2.00;;
40599;SDS011;26309;50.924;4.754;2024-03-23T15:23:20;5.43;;;1.70;;
40599;SDS011;26309;50.924;4.754;2024-03-23T15:26:00;7.82;;;1.80;;
40599;SDS011;26309;50.924;4.754;2024-03-23T15:28:27;5.30;;;1.92;;
40599;SDS011;26309;50.924;4.754;2024-03-23T15:31:12;7.63;;;2.10;;
40599;SDS011;26309;50.924;4.754;2024-03-23T15:33:38;5.68;;;1.70;;
40599;SDS011;26309;50.924;4.754;2024-03-23T15:36:05;7.13;;;1.70;;
40599;SDS011;26309;50.924;4.754;2024-03-23T15:38:31;5.75;;;1.98;;
40599;SDS011;26309;50.924;4.754;2024-03-23T15:40:57;3.63;;;1.52;;
40599;SDS011;26309;50.924;4.754;2024-03-23T15:43:23;3.85;;;1.58;;
40599;SDS011;26309;50.924;4.754;2024-03-23T15:45:56;7.93;;;1.73;;
40599;SDS011;26309;50.924;4.754;2024-03-23T15:48:24;6.15;;;1.70;;
40599;SDS011;26309;50.924;4.754;2024-03-23T15:50:55;5.78;;;1.58;;
40599;SDS011;26309;50.924;4.754;2024-03-23T15:53:23;5.38;;;1.75;;
40599;SDS011;26309;50.924;4.754;2024-03-23T15:55:57;4.93;;;1.33;;